logo
Search for airport 
image banner adimage banner adimage banner ad
image banner ad

FABW - Karoo Gateway

Located in Beaufort West, South Africa

ICAO - FABW, IATA -

Data provided by Airmate  

General information

Coordinates: S32°18'0" E22°40'0"
Elevation is 2929 feet MSL.
Magnetic variation is -26° East
View others Airports in Western Cape

Operational data

Special qualification required
Current time UTC:
Current local time:
Weather at : - ( 0 km )
METAR: PKWA 230420Z AUTO 07017KT 10SM SCT009 SCT018 SCT028 27/25 A2980 RMK AO2 T02720252 TSNO
View NOTAMs / SUP AIP / TFR affecting this airport [VIEW]
Communications frequencies: [VIEW]

Runways:

RWY identifierQFULength (ft)Width (ft)SurfaceLDA (ft)
17143°312258GRAV3117
35323°312258GRAV3117
0860°482290ASPH4872
26240°482290ASPH4872
0326°331798GRAV
21206°331798GRAV

Airport contact information

Address: Beaufort West South Africa

Satellite view of FABW